sensor_id;sensor_type;location;lat;lon;timestamp;temperature;humidity
31733;DHT22;18312;51.486;7.144;2024-03-22T00:02:18;10.10;99.90
31733;DHT22;18312;51.486;7.144;2024-03-22T00:04:45;10.10;99.90
31733;DHT22;18312;51.486;7.144;2024-03-22T00:07:12;10.10;99.90
31733;DHT22;18312;51.486;7.144;2024-03-22T00:09:39;10.10;99.90
31733;DHT22;18312;51.486;7.144;2024-03-22T00:12:06;10.20;99.90
31733;DHT22;18312;51.486;7.144;2024-03-22T00:14:33;10.20;99.90
31733;DHT22;18312;51.486;7.144;2024-03-22T00:16:59;10.20;99.90
31733;DHT22;18312;51.486;7.144;2024-03-22T00:19:25;10.20;99.90
31733;DHT22;18312;51.486;7.144;2024-03-22T00:21:51;10.30;99.90
31733;DHT22;18312;51.486;7.144;2024-03-22T00:24:20;10.40;99.90
31733;DHT22;18312;51.486;7.144;2024-03-22T00:26:45;10.40;99.90
31733;DHT22;18312;51.486;7.144;2024-03-22T00:29:12;10.50;99.90
31733;DHT22;18312;51.486;7.144;2024-03-22T00:31:38;10.50;99.90
31733;DHT22;18312;51.486;7.144;2024-03-22T00:34:05;10.60;99.90
31733;DHT22;18312;51.486;7.144;2024-03-22T00:36:31;10.70;99.90
31733;DHT22;18312;51.486;7.144;2024-03-22T00:38:58;10.70;99.90
31733;DHT22;18312;51.486;7.144;2024-03-22T00:41:26;10.70;99.90
31733;DHT22;18312;51.486;7.144;2024-03-22T00:43:53;10.80;99.90
31733;DHT22;18312;51.486;7.144;2024-03-22T00:46:18;10.80;99.90
31733;DHT22;18312;51.486;7.144;2024-03-22T00:48:45;10.90;99.90
31733;DHT22;18312;51.486;7.144;2024-03-22T00:51:11;10.90;99.90
31733;DHT22;18312;51.486;7.144;2024-03-22T00:53:38;10.90;99.90
31733;DHT22;18312;51.486;7.144;2024-03-22T00:56:05;10.90;99.90
31733;DHT22;18312;51.486;7.144;2024-03-22T00:58:33;11.00;99.90
31733;DHT22;18312;51.486;7.144;2024-03-22T01:00:59;11.00;99.90
31733;DHT22;18312;51.486;7.144;2024-03-22T01:03:26;11.10;99.90
31733;DHT22;18312;51.486;7.144;2024-03-22T01:05:52;11.00;99.90
31733;DHT22;18312;51.486;7.144;2024-03-22T01:08:19;11.10;99.90
31733;DHT22;18312;51.486;7.144;2024-03-22T01:10:48;11.10;99.90
31733;DHT22;18312;51.486;7.144;2024-03-22T01:13:15;11.10;99.90
31733;DHT22;18312;51.486;7.144;2024-03-22T01:15:42;11.10;99.90
31733;DHT22;18312;51.486;7.144;2024-03-22T01:18:09;11.10;99.90
31733;DHT22;18312;51.486;7.144;2024-03-22T01:20:35;11.20;99.90
31733;DHT22;18312;51.486;7.144;2024-03-22T01:23:02;11.20;99.90
31733;DHT22;18312;51.486;7.144;2024-03-22T01:25:28;11.20;99.90
31733;DHT22;18312;51.486;7.144;2024-03-22T01:27:55;11.30;99.90
31733;DHT22;18312;51.486;7.144;2024-03-22T01:30:21;11.30;99.90
31733;DHT22;18312;51.486;7.144;2024-03-22T01:32:50;11.30;99.90
31733;DHT22;18312;51.486;7.144;2024-03-22T01:35:16;11.20;99.90
31733;DHT22;18312;51.486;7.144;2024-03-22T01:37:42;11.20;99.90
31733;DHT22;18312;51.486;7.144;2024-03-22T01:40:09;11.30;99.90
31733;DHT22;18312;51.486;7.144;2024-03-22T01:42:36;11.30;99.90
31733;DHT22;18312;51.486;7.144;2024-03-22T01:45:03;11.30;99.90
31733;DHT22;18312;51.486;7.144;2024-03-22T01:47:30;11.30;99.90
31733;DHT22;18312;51.486;7.144;2024-03-22T01:49:58;11.40;99.90
31733;DHT22;18312;51.486;7.144;2024-03-22T01:52:26;11.40;99.90
31733;DHT22;18312;51.486;7.144;2024-03-22T01:54:52;11.40;99.90
31733;DHT22;18312;51.486;7.144;2024-03-22T01:57:19;11.50;99.90
31733;DHT22;18312;51.486;7.144;2024-03-22T01:59:46;11.50;99.90
31733;DHT22;18312;51.486;7.144;2024-03-22T02:02:15;11.50;99.90
31733;DHT22;18312;51.486;7.144;2024-03-22T02:04:42;11.50;99.90
31733;DHT22;18312;51.486;7.144;2024-03-22T02:07:10;11.50;99.90
31733;DHT22;18312;51.486;7.144;2024-03-22T02:09:36;11.60;99.90
31733;DHT22;18312;51.486;7.144;2024-03-22T02:12:03;11.50;99.90
31733;DHT22;18312;51.486;7.144;2024-03-22T02:14:29;11.50;99.90
31733;DHT22;18312;51.486;7.144;2024-03-22T02:16:57;11.60;99.90
31733;DHT22;18312;51.486;7.144;2024-03-22T02:19:23;11.60;99.90
31733;DHT22;18312;51.486;7.144;2024-03-22T02:21:49;11.60;99.90
31733;DHT22;18312;51.486;7.144;2024-03-22T02:24:17;11.60;99.90
31733;DHT22;18312;51.486;7.144;2024-03-22T02:26:43;11.60;99.90
31733;DHT22;18312;51.486;7.144;2024-03-22T02:29:09;11.60;99.90
31733;DHT22;18312;51.486;7.144;2024-03-22T02:31:36;11.60;99.90
31733;DHT22;18312;51.486;7.144;2024-03-22T02:34:02;11.60;99.90
31733;DHT22;18312;51.486;7.144;2024-03-22T02:36:29;11.60;99.90
31733;DHT22;18312;51.486;7.144;2024-03-22T02:38:55;11.70;99.90
31733;DHT22;18312;51.486;7.144;2024-03-22T02:41:23;11.70;99.90
31733;DHT22;18312;51.486;7.144;2024-03-22T02:43:49;11.70;99.90
31733;DHT22;18312;51.486;7.144;2024-03-22T02:46:16;11.70;99.90
31733;DHT22;18312;51.486;7.144;2024-03-22T02:48:42;11.70;99.90
31733;DHT22;18312;51.486;7.144;2024-03-22T02:51:09;11.70;99.90
31733;DHT22;18312;51.486;7.144;2024-03-22T02:53:35;11.70;99.90
31733;DHT22;18312;51.486;7.144;2024-03-22T02:56:02;11.70;99.90
31733;DHT22;18312;51.486;7.144;2024-03-22T02:58:29;11.80;99.90
31733;DHT22;18312;51.486;7.144;2024-03-22T03:00:56;11.70;99.90
31733;DHT22;18312;51.486;7.144;2024-03-22T03:03:22;11.80;99.90
31733;DHT22;18312;51.486;7.144;2024-03-22T03:05:50;11.70;99.90
31733;DHT22;18312;51.486;7.144;2024-03-22T03:08:17;11.80;99.90
31733;DHT22;18312;51.486;7.144;2024-03-22T03:10:43;11.80;99.90
31733;DHT22;18312;51.486;7.144;2024-03-22T03:13:11;11.80;99.90
31733;DHT22;18312;51.486;7.144;2024-03-22T03:15:39;11.80;99.90
31733;DHT22;18312;51.486;7.144;2024-03-22T03:18:05;11.80;99.90
31733;DHT22;18312;51.486;7.144;2024-03-22T03:20:32;11.80;99.90
31733;DHT22;18312;51.486;7.144;2024-03-22T03:22:57;11.80;99.90
31733;DHT22;18312;51.486;7.144;2024-03-22T03:25:25;11.80;99.90
31733;DHT22;18312;51.486;7.144;2024-03-22T03:27:51;11.80;99.90
31733;DHT22;18312;51.486;7.144;2024-03-22T03:30:19;11.70;99.90
31733;DHT22;18312;51.486;7.144;2024-03-22T03:32:46;11.70;99.90
31733;DHT22;18312;51.486;7.144;2024-03-22T03:35:13;11.70;99.90
31733;DHT22;18312;51.486;7.144;2024-03-22T03:37:40;11.70;99.90
31733;DHT22;18312;51.486;7.144;2024-03-22T03:40:08;11.70;99.90
31733;DHT22;18312;51.486;7.144;2024-03-22T03:42:34;11.70;99.90
31733;DHT22;18312;51.486;7.144;2024-03-22T03:45:01;11.60;99.90
31733;DHT22;18312;51.486;7.144;2024-03-22T03:47:27;11.50;99.90
31733;DHT22;18312;51.486;7.144;2024-03-22T03:49:55;11.50;99.90
31733;DHT22;18312;51.486;7.144;2024-03-22T03:52:21;11.50;99.90
31733;DHT22;18312;51.486;7.144;2024-03-22T03:54:48;11.40;99.90
31733;DHT22;18312;51.486;7.144;2024-03-22T03:57:14;11.40;99.90
31733;DHT22;18312;51.486;7.144;2024-03-22T03:59:41;11.30;99.90
31733;DHT22;18312;51.486;7.144;2024-03-22T04:02:08;11.40;99.90
31733;DHT22;18312;51.486;7.144;2024-03-22T04:04:34;11.30;99.90
31733;DHT22;18312;51.486;7.144;2024-03-22T04:07:03;11.30;99.90
31733;DHT22;18312;51.486;7.144;2024-03-22T04:09:29;11.30;99.90
31733;DHT22;18312;51.486;7.144;2024-03-22T04:11:57;11.30;99.90
31733;DHT22;18312;51.486;7.144;2024-03-22T04:14:24;11.30;99.90
31733;DHT22;18312;51.486;7.144;2024-03-22T04:16:51;11.20;99.90
31733;DHT22;18312;51.486;7.144;2024-03-22T04:19:17;11.20;99.90
31733;DHT22;18312;51.486;7.144;2024-03-22T04:21:44;11.20;99.90
31733;DHT22;18312;51.486;7.144;2024-03-22T04:24:11;11.30;99.90
31733;DHT22;18312;51.486;7.144;2024-03-22T04:26:38;11.30;99.90
31733;DHT22;18312;51.486;7.144;2024-03-22T04:29:04;11.30;99.90
31733;DHT22;18312;51.486;7.144;2024-03-22T04:31:31;11.30;99.90
31733;DHT22;18312;51.486;7.144;2024-03-22T04:33:57;11.30;99.90
31733;DHT22;18312;51.486;7.144;2024-03-22T04:36:23;11.30;99.90
31733;DHT22;18312;51.486;7.144;2024-03-22T04:38:49;11.30;99.90
31733;DHT22;18312;51.486;7.144;2024-03-22T04:41:17;11.30;99.90
31733;DHT22;18312;51.486;7.144;2024-03-22T04:43:44;11.30;99.90
31733;DHT22;18312;51.486;7.144;2024-03-22T04:46:11;11.30;99.90
31733;DHT22;18312;51.486;7.144;2024-03-22T04:48:37;11.30;99.90
31733;DHT22;18312;51.486;7.144;2024-03-22T04:51:04;11.30;99.90
31733;DHT22;18312;51.486;7.144;2024-03-22T04:53:31;11.30;99.90
31733;DHT22;18312;51.486;7.144;2024-03-22T04:55:57;11.30;99.90
31733;DHT22;18312;51.486;7.144;2024-03-22T04:58:25;11.30;99.90
31733;DHT22;18312;51.486;7.144;2024-03-22T05:00:57;11.30;99.90
31733;DHT22;18312;51.486;7.144;2024-03-22T05:03:23;11.30;99.90
31733;DHT22;18312;51.486;7.144;2024-03-22T05:05:50;11.30;99.90
31733;DHT22;18312;51.486;7.144;2024-03-22T05:08:16;11.30;99.90
31733;DHT22;18312;51.486;7.144;2024-03-22T05:10:43;11.30;99.90
31733;DHT22;18312;51.486;7.144;2024-03-22T05:13:09;11.40;99.90
31733;DHT22;18312;51.486;7.144;2024-03-22T05:15:37;11.30;99.90
31733;DHT22;18312;51.486;7.144;2024-03-22T05:18:04;11.40;99.90
31733;DHT22;18312;51.486;7.144;2024-03-22T05:20:30;11.30;99.90
31733;DHT22;18312;51.486;7.144;2024-03-22T05:22:56;11.30;99.90
31733;DHT22;18312;51.486;7.144;2024-03-22T05:25:23;11.40;99.90
31733;DHT22;18312;51.486;7.144;2024-03-22T05:27:49;11.40;99.90
31733;DHT22;18312;51.486;7.144;2024-03-22T05:30:16;11.40;99.90
31733;DHT22;18312;51.486;7.144;2024-03-22T05:32:43;11.30;99.90
31733;DHT22;18312;51.486;7.144;2024-03-22T05:35:10;11.30;99.90
31733;DHT22;18312;51.486;7.144;2024-03-22T05:37:36;11.30;99.90
31733;DHT22;18312;51.486;7.144;2024-03-22T05:40:03;11.30;99.90
31733;DHT22;18312;51.486;7.144;2024-03-22T05:42:30;11.40;99.90
31733;DHT22;18312;51.486;7.144;2024-03-22T05:44:59;11.40;99.90
31733;DHT22;18312;51.486;7.144;2024-03-22T05:47:25;11.40;99.90
31733;DHT22;18312;51.486;7.144;2024-03-22T05:49:53;11.40;99.90
31733;DHT22;18312;51.486;7.144;2024-03-22T05:52:19;11.50;99.90
31733;DHT22;18312;51.486;7.144;2024-03-22T05:54:46;11.50;99.90
31733;DHT22;18312;51.486;7.144;2024-03-22T05:57:12;11.50;99.90
31733;DHT22;18312;51.486;7.144;2024-03-22T05:59:39;11.60;99.90
31733;DHT22;18312;51.486;7.144;2024-03-22T06:02:05;11.60;99.90
31733;DHT22;18312;51.486;7.144;2024-03-22T06:04:32;11.60;99.90
31733;DHT22;18312;51.486;7.144;2024-03-22T06:06:59;11.70;99.90
31733;DHT22;18312;51.486;7.144;2024-03-22T06:09:28;11.70;99.90
31733;DHT22;18312;51.486;7.144;2024-03-22T06:12:03;11.70;99.90
31733;DHT22;18312;51.486;7.144;2024-03-22T06:14:30;11.80;99.90
31733;DHT22;18312;51.486;7.144;2024-03-22T06:16:56;11.80;99.90
31733;DHT22;18312;51.486;7.144;2024-03-22T06:19:23;11.90;99.90
31733;DHT22;18312;51.486;7.144;2024-03-22T06:21:49;12.00;99.90
31733;DHT22;18312;51.486;7.144;2024-03-22T06:24:17;12.00;99.90
31733;DHT22;18312;51.486;7.144;2024-03-22T06:26:43;12.00;99.90
31733;DHT22;18312;51.486;7.144;2024-03-22T06:29:10;12.10;99.90
31733;DHT22;18312;51.486;7.144;2024-03-22T06:31:36;12.10;99.90
31733;DHT22;18312;51.486;7.144;2024-03-22T06:34:02;12.20;99.90
31733;DHT22;18312;51.486;7.144;2024-03-22T06:36:29;12.20;99.90
31733;DHT22;18312;51.486;7.144;2024-03-22T06:38:56;12.20;99.90
31733;DHT22;18312;51.486;7.144;2024-03-22T06:41:23;12.30;99.90
31733;DHT22;18312;51.486;7.144;2024-03-22T06:43:51;12.30;99.90
31733;DHT22;18312;51.486;7.144;2024-03-22T06:46:17;12.30;99.90
31733;DHT22;18312;51.486;7.144;2024-03-22T06:48:45;12.40;99.90
31733;DHT22;18312;51.486;7.144;2024-03-22T06:51:11;12.40;99.90
31733;DHT22;18312;51.486;7.144;2024-03-22T06:53:38;12.40;99.90
31733;DHT22;18312;51.486;7.144;2024-03-22T06:56:05;12.50;99.90
31733;DHT22;18312;51.486;7.144;2024-03-22T06:58:35;12.60;99.90
31733;DHT22;18312;51.486;7.144;2024-03-22T07:01:02;12.80;99.90
31733;DHT22;18312;51.486;7.144;2024-03-22T07:03:29;12.80;99.90
31733;DHT22;18312;51.486;7.144;2024-03-22T07:05:55;12.90;99.90
31733;DHT22;18312;51.486;7.144;2024-03-22T07:08:23;13.00;99.90
31733;DHT22;18312;51.486;7.144;2024-03-22T07:10:49;13.00;99.90
31733;DHT22;18312;51.486;7.144;2024-03-22T07:13:15;13.10;99.90
31733;DHT22;18312;51.486;7.144;2024-03-22T07:15:45;13.10;99.90
31733;DHT22;18312;51.486;7.144;2024-03-22T07:18:14;13.20;99.90
31733;DHT22;18312;51.486;7.144;2024-03-22T07:20:41;13.60;99.90
31733;DHT22;18312;51.486;7.144;2024-03-22T07:23:08;13.80;99.90
31733;DHT22;18312;51.486;7.144;2024-03-22T07:25:35;13.90;99.90
31733;DHT22;18312;51.486;7.144;2024-03-22T07:28:01;14.00;99.90
31733;DHT22;18312;51.486;7.144;2024-03-22T07:30:27;14.00;99.90
31733;DHT22;18312;51.486;7.144;2024-03-22T07:32:55;14.10;99.90
31733;DHT22;18312;51.486;7.144;2024-03-22T07:35:23;14.20;99.90
31733;DHT22;18312;51.486;7.144;2024-03-22T07:37:51;14.30;99.90
31733;DHT22;18312;51.486;7.144;2024-03-22T07:40:18;14.40;99.90
31733;DHT22;18312;51.486;7.144;2024-03-22T07:42:45;14.60;99.90
31733;DHT22;18312;51.486;7.144;2024-03-22T07:45:12;14.60;99.90
31733;DHT22;18312;51.486;7.144;2024-03-22T07:47:38;14.40;99.90
31733;DHT22;18312;51.486;7.144;2024-03-22T07:50:09;14.30;99.90
31733;DHT22;18312;51.486;7.144;2024-03-22T07:52:40;14.40;99.90
31733;DHT22;18312;51.486;7.144;2024-03-22T07:55:11;14.40;99.90
31733;DHT22;18312;51.486;7.144;2024-03-22T07:57:37;14.40;99.90
31733;DHT22;18312;51.486;7.144;2024-03-22T08:00:05;14.50;99.90
31733;DHT22;18312;51.486;7.144;2024-03-22T08:02:32;14.50;99.90
31733;DHT22;18312;51.486;7.144;2024-03-22T08:04:59;14.50;99.90
31733;DHT22;18312;51.486;7.144;2024-03-22T08:07:26;14.70;99.90
31733;DHT22;18312;51.486;7.144;2024-03-22T08:09:53;14.90;99.90
31733;DHT22;18312;51.486;7.144;2024-03-22T08:12:21;15.20;99.90
31733;DHT22;18312;51.486;7.144;2024-03-22T08:14:48;15.20;99.90
31733;DHT22;18312;51.486;7.144;2024-03-22T08:17:14;14.90;99.90
31733;DHT22;18312;51.486;7.144;2024-03-22T08:19:41;15.00;99.90
31733;DHT22;18312;51.486;7.144;2024-03-22T08:22:06;15.10;99.90
31733;DHT22;18312;51.486;7.144;2024-03-22T08:24:35;15.10;99.90
31733;DHT22;18312;51.486;7.144;2024-03-22T08:27:00;15.30;99.90
31733;DHT22;18312;51.486;7.144;2024-03-22T08:29:27;15.40;99.90
31733;DHT22;18312;51.486;7.144;2024-03-22T08:31:53;15.20;99.90
31733;DHT22;18312;51.486;7.144;2024-03-22T08:34:21;15.20;99.90
31733;DHT22;18312;51.486;7.144;2024-03-22T08:36:47;15.00;99.90
31733;DHT22;18312;51.486;7.144;2024-03-22T08:39:14;14.80;99.90
31733;DHT22;18312;51.486;7.144;2024-03-22T08:41:43;14.70;99.90
31733;DHT22;18312;51.486;7.144;2024-03-22T08:44:10;14.80;99.90
31733;DHT22;18312;51.486;7.144;2024-03-22T08:46:35;15.10;99.90
31733;DHT22;18312;51.486;7.144;2024-03-22T08:49:02;15.40;99.90
31733;DHT22;18312;51.486;7.144;2024-03-22T08:51:28;15.50;99.90
31733;DHT22;18312;51.486;7.144;2024-03-22T08:53:56;15.60;99.80
31733;DHT22;18312;51.486;7.144;2024-03-22T08:56:22;15.60;99.50
31733;DHT22;18312;51.486;7.144;2024-03-22T08:58:50;15.90;98.70
31733;DHT22;18312;51.486;7.144;2024-03-22T09:01:16;15.70;98.60
31733;DHT22;18312;51.486;7.144;2024-03-22T09:03:43;15.50;98.20
31733;DHT22;18312;51.486;7.144;2024-03-22T09:06:11;15.40;98.80
31733;DHT22;18312;51.486;7.144;2024-03-22T09:08:38;15.50;98.60
31733;DHT22;18312;51.486;7.144;2024-03-22T09:11:04;15.80;98.80
31733;DHT22;18312;51.486;7.144;2024-03-22T09:13:31;15.80;98.30
31733;DHT22;18312;51.486;7.144;2024-03-22T09:16:01;15.80;98.60
31733;DHT22;18312;51.486;7.144;2024-03-22T09:18:28;16.00;98.00
31733;DHT22;18312;51.486;7.144;2024-03-22T09:20:55;16.40;97.60
31733;DHT22;18312;51.486;7.144;2024-03-22T09:23:22;16.80;96.90
31733;DHT22;18312;51.486;7.144;2024-03-22T09:25:49;17.30;95.00
31733;DHT22;18312;51.486;7.144;2024-03-22T09:28:16;17.30;94.30
31733;DHT22;18312;51.486;7.144;2024-03-22T09:30:41;17.30;94.10
31733;DHT22;18312;51.486;7.144;2024-03-22T09:33:10;17.60;93.40
31733;DHT22;18312;51.486;7.144;2024-03-22T09:35:36;18.00;92.90
31733;DHT22;18312;51.486;7.144;2024-03-22T09:38:04;18.30;91.90
31733;DHT22;18312;51.486;7.144;2024-03-22T09:40:30;17.70;92.40
31733;DHT22;18312;51.486;7.144;2024-03-22T09:43:01;17.50;92.60
31733;DHT22;18312;51.486;7.144;2024-03-22T09:45:28;17.40;92.40
31733;DHT22;18312;51.486;7.144;2024-03-22T09:47:56;17.40;92.30
31733;DHT22;18312;51.486;7.144;2024-03-22T09:50:25;17.20;93.40
31733;DHT22;18312;51.486;7.144;2024-03-22T09:52:52;17.10;93.00
31733;DHT22;18312;51.486;7.144;2024-03-22T09:55:20;17.10;93.80
31733;DHT22;18312;51.486;7.144;2024-03-22T09:57:49;17.00;93.40
31733;DHT22;18312;51.486;7.144;2024-03-22T10:00:17;16.90;93.70
31733;DHT22;18312;51.486;7.144;2024-03-22T10:02:49;17.10;93.90
31733;DHT22;18312;51.486;7.144;2024-03-22T10:05:15;17.00;93.10
31733;DHT22;18312;51.486;7.144;2024-03-22T10:07:44;17.10;93.80
31733;DHT22;18312;51.486;7.144;2024-03-22T10:10:10;17.10;93.40
31733;DHT22;18312;51.486;7.144;2024-03-22T10:12:37;17.00;93.60
31733;DHT22;18312;51.486;7.144;2024-03-22T10:15:05;17.00;93.80
31733;DHT22;18312;51.486;7.144;2024-03-22T10:17:34;17.00;93.70
31733;DHT22;18312;51.486;7.144;2024-03-22T10:20:00;17.20;93.80
31733;DHT22;18312;51.486;7.144;2024-03-22T10:22:26;17.40;93.60
31733;DHT22;18312;51.486;7.144;2024-03-22T10:24:54;17.20;92.50
31733;DHT22;18312;51.486;7.144;2024-03-22T10:27:26;16.90;93.70
31733;DHT22;18312;51.486;7.144;2024-03-22T10:29:52;16.90;94.10
31733;DHT22;18312;51.486;7.144;2024-03-22T10:32:19;17.00;93.70
31733;DHT22;18312;51.486;7.144;2024-03-22T10:34:45;17.10;93.30
31733;DHT22;18312;51.486;7.144;2024-03-22T10:37:14;17.10;94.70
31733;DHT22;18312;51.486;7.144;2024-03-22T10:39:42;17.10;93.90
31733;DHT22;18312;51.486;7.144;2024-03-22T10:42:10;17.00;94.00
31733;DHT22;18312;51.486;7.144;2024-03-22T10:44:36;16.80;94.30
31733;DHT22;18312;51.486;7.144;2024-03-22T10:47:04;16.80;94.30
31733;DHT22;18312;51.486;7.144;2024-03-22T10:49:33;16.80;94.90
31733;DHT22;18312;51.486;7.144;2024-03-22T10:52:03;16.70;94.60
31733;DHT22;18312;51.486;7.144;2024-03-22T10:54:33;16.50;94.90
31733;DHT22;18312;51.486;7.144;2024-03-22T10:57:02;16.70;94.90
31733;DHT22;18312;51.486;7.144;2024-03-22T10:59:33;16.80;94.60
31733;DHT22;18312;51.486;7.144;2024-03-22T11:02:03;17.10;95.10
31733;DHT22;18312;51.486;7.144;2024-03-22T11:04:30;17.20;94.70
31733;DHT22;18312;51.486;7.144;2024-03-22T11:06:57;17.60;94.00
31733;DHT22;18312;51.486;7.144;2024-03-22T11:09:23;17.80;93.30
31733;DHT22;18312;51.486;7.144;2024-03-22T11:11:52;17.80;93.40
31733;DHT22;18312;51.486;7.144;2024-03-22T11:14:17;17.80;93.40
31733;DHT22;18312;51.486;7.144;2024-03-22T11:16:48;17.90;92.90
31733;DHT22;18312;51.486;7.144;2024-03-22T11:19:14;17.60;93.50
31733;DHT22;18312;51.486;7.144;2024-03-22T11:21:40;17.40;93.20
31733;DHT22;18312;51.486;7.144;2024-03-22T11:24:06;17.50;93.00
31733;DHT22;18312;51.486;7.144;2024-03-22T11:26:33;17.40;93.40
31733;DHT22;18312;51.486;7.144;2024-03-22T11:29:00;17.70;93.70
31733;DHT22;18312;51.486;7.144;2024-03-22T11:31:27;17.50;93.00
31733;DHT22;18312;51.486;7.144;2024-03-22T11:33:54;17.60;93.00
31733;DHT22;18312;51.486;7.144;2024-03-22T11:36:21;17.40;93.60
31733;DHT22;18312;51.486;7.144;2024-03-22T11:38:47;17.20;94.20
31733;DHT22;18312;51.486;7.144;2024-03-22T11:41:16;16.90;94.50
31733;DHT22;18312;51.486;7.144;2024-03-22T11:43:43;16.80;94.20
31733;DHT22;18312;51.486;7.144;2024-03-22T11:46:10;16.60;94.70
31733;DHT22;18312;51.486;7.144;2024-03-22T11:48:39;16.60;94.90
31733;DHT22;18312;51.486;7.144;2024-03-22T11:51:07;16.40;99.50
31733;DHT22;18312;51.486;7.144;2024-03-22T11:53:34;16.30;99.90
31733;DHT22;18312;51.486;7.144;2024-03-22T11:56:01;16.30;98.70
31733;DHT22;18312;51.486;7.144;2024-03-22T11:58:29;16.20;98.40
31733;DHT22;18312;51.486;7.144;2024-03-22T12:00:56;16.00;98.10
31733;DHT22;18312;51.486;7.144;2024-03-22T12:03:22;15.90;98.50
31733;DHT22;18312;51.486;7.144;2024-03-22T12:05:49;15.60;98.50
31733;DHT22;18312;51.486;7.144;2024-03-22T12:08:17;15.50;98.60
31733;DHT22;18312;51.486;7.144;2024-03-22T12:10:44;15.50;99.30
31733;DHT22;18312;51.486;7.144;2024-03-22T12:13:10;15.20;99.90
31733;DHT22;18312;51.486;7.144;2024-03-22T12:15:37;15.20;99.90
31733;DHT22;18312;51.486;7.144;2024-03-22T12:18:03;15.00;99.90
31733;DHT22;18312;51.486;7.144;2024-03-22T12:20:30;14.90;99.90
31733;DHT22;18312;51.486;7.144;2024-03-22T12:22:56;14.60;99.90
31733;DHT22;18312;51.486;7.144;2024-03-22T12:25:24;14.70;99.90
31733;DHT22;18312;51.486;7.144;2024-03-22T12:27:50;14.70;99.90
31733;DHT22;18312;51.486;7.144;2024-03-22T12:30:16;14.60;99.90
31733;DHT22;18312;51.486;7.144;2024-03-22T12:32:43;14.30;99.90
31733;DHT22;18312;51.486;7.144;2024-03-22T12:35:09;14.10;99.90
31733;DHT22;18312;51.486;7.144;2024-03-22T12:37:35;14.00;99.90
31733;DHT22;18312;51.486;7.144;2024-03-22T12:40:02;14.00;99.90
31733;DHT22;18312;51.486;7.144;2024-03-22T12:42:29;14.00;99.90
31733;DHT22;18312;51.486;7.144;2024-03-22T12:44:56;14.10;99.90
31733;DHT22;18312;51.486;7.144;2024-03-22T12:47:22;14.00;99.90
31733;DHT22;18312;51.486;7.144;2024-03-22T12:49:49;13.90;99.90
31733;DHT22;18312;51.486;7.144;2024-03-22T12:52:14;13.60;99.90
31733;DHT22;18312;51.486;7.144;2024-03-22T12:54:42;13.50;99.90
31733;DHT22;18312;51.486;7.144;2024-03-22T12:57:08;13.50;99.90
31733;DHT22;18312;51.486;7.144;2024-03-22T12:59:37;13.50;99.90
31733;DHT22;18312;51.486;7.144;2024-03-22T13:02:04;13.60;99.90
31733;DHT22;18312;51.486;7.144;2024-03-22T13:04:31;13.40;99.90
31733;DHT22;18312;51.486;7.144;2024-03-22T13:06:57;13.40;99.90
31733;DHT22;18312;51.486;7.144;2024-03-22T13:09:24;13.50;99.90
31733;DHT22;18312;51.486;7.144;2024-03-22T13:11:50;13.50;99.90
31733;DHT22;18312;51.486;7.144;2024-03-22T13:14:16;13.50;99.90
31733;DHT22;18312;51.486;7.144;2024-03-22T13:16:46;13.50;99.90
31733;DHT22;18312;51.486;7.144;2024-03-22T13:19:13;13.50;99.90
31733;DHT22;18312;51.486;7.144;2024-03-22T13:21:40;13.40;99.90
31733;DHT22;18312;51.486;7.144;2024-03-22T13:24:09;13.50;99.90
31733;DHT22;18312;51.486;7.144;2024-03-22T13:26:35;13.50;99.90
31733;DHT22;18312;51.486;7.144;2024-03-22T13:29:02;13.60;99.90
31733;DHT22;18312;51.486;7.144;2024-03-22T13:31:27;13.50;99.90
31733;DHT22;18312;51.486;7.144;2024-03-22T13:33:56;13.20;99.90
31733;DHT22;18312;51.486;7.144;2024-03-22T13:36:21;13.10;99.90
31733;DHT22;18312;51.486;7.144;2024-03-22T13:38:51;13.00;99.90
31733;DHT22;18312;51.486;7.144;2024-03-22T13:41:16;12.80;99.90
31733;DHT22;18312;51.486;7.144;2024-03-22T13:43:43;12.80;99.90
31733;DHT22;18312;51.486;7.144;2024-03-22T13:46:10;12.80;99.90
31733;DHT22;18312;51.486;7.144;2024-03-22T13:48:40;12.80;99.90
31733;DHT22;18312;51.486;7.144;2024-03-22T13:51:07;13.00;99.90
31733;DHT22;18312;51.486;7.144;2024-03-22T13:53:34;13.00;99.90
31733;DHT22;18312;51.486;7.144;2024-03-22T13:56:00;13.00;99.90
31733;DHT22;18312;51.486;7.144;2024-03-22T13:58:27;12.90;99.90
31733;DHT22;18312;51.486;7.144;2024-03-22T14:00:53;13.00;99.90
31733;DHT22;18312;51.486;7.144;2024-03-22T14:03:20;12.90;99.90
31733;DHT22;18312;51.486;7.144;2024-03-22T14:05:46;12.90;99.90
31733;DHT22;18312;51.486;7.144;2024-03-22T14:08:14;13.00;99.90
31733;DHT22;18312;51.486;7.144;2024-03-22T14:10:40;13.10;99.90
31733;DHT22;18312;51.486;7.144;2024-03-22T14:13:07;13.00;99.90
31733;DHT22;18312;51.486;7.144;2024-03-22T14:15:33;12.80;99.90
31733;DHT22;18312;51.486;7.144;2024-03-22T14:18:01;12.80;99.90
31733;DHT22;18312;51.486;7.144;2024-03-22T14:20:27;12.60;99.90
31733;DHT22;18312;51.486;7.144;2024-03-22T14:22:54;12.60;99.90
31733;DHT22;18312;51.486;7.144;2024-03-22T14:25:22;12.70;99.90
31733;DHT22;18312;51.486;7.144;2024-03-22T14:27:49;12.70;99.90
31733;DHT22;18312;51.486;7.144;2024-03-22T14:30:15;12.70;99.90
31733;DHT22;18312;51.486;7.144;2024-03-22T14:32:43;12.60;99.90
31733;DHT22;18312;51.486;7.144;2024-03-22T14:35:12;12.70;99.90
31733;DHT22;18312;51.486;7.144;2024-03-22T14:37:40;12.70;99.90
31733;DHT22;18312;51.486;7.144;2024-03-22T14:40:06;12.60;99.90
31733;DHT22;18312;51.486;7.144;2024-03-22T14:42:37;12.50;99.90
31733;DHT22;18312;51.486;7.144;2024-03-22T14:45:03;12.40;99.90
31733;DHT22;18312;51.486;7.144;2024-03-22T14:47:30;12.50;99.90
31733;DHT22;18312;51.486;7.144;2024-03-22T14:49:55;12.30;99.90
31733;DHT22;18312;51.486;7.144;2024-03-22T14:52:22;12.40;99.90
31733;DHT22;18312;51.486;7.144;2024-03-22T14:54:49;12.10;99.90
31733;DHT22;18312;51.486;7.144;2024-03-22T14:57:17;11.90;99.90
31733;DHT22;18312;51.486;7.144;2024-03-22T14:59:44;11.70;99.90
31733;DHT22;18312;51.486;7.144;2024-03-22T15:02:13;11.60;99.90
31733;DHT22;18312;51.486;7.144;2024-03-22T15:04:39;11.60;99.90
31733;DHT22;18312;51.486;7.144;2024-03-22T15:07:06;11.60;99.90
31733;DHT22;18312;51.486;7.144;2024-03-22T15:09:32;11.60;99.90
31733;DHT22;18312;51.486;7.144;2024-03-22T15:11:58;11.60;99.90
31733;DHT22;18312;51.486;7.144;2024-03-22T15:14:24;11.50;99.90
31733;DHT22;18312;51.486;7.144;2024-03-22T15:16:55;11.40;99.90
31733;DHT22;18312;51.486;7.144;2024-03-22T15:19:22;11.40;99.90
31733;DHT22;18312;51.486;7.144;2024-03-22T15:21:49;11.50;99.90
31733;DHT22;18312;51.486;7.144;2024-03-22T15:24:15;11.50;99.90
31733;DHT22;18312;51.486;7.144;2024-03-22T15:26:41;11.50;99.90
31733;DHT22;18312;51.486;7.144;2024-03-22T15:29:09;11.50;99.90